sensor_id;sensor_type;location;lat;lon;timestamp;P1;durP1;ratioP1;P2;durP2;ratioP2
6374;SDS011;35400;45.472;-122.822;2023-05-07T00:00:17;0.57;;;0.57;;
6374;SDS011;35400;45.472;-122.822;2023-05-07T00:02:45;0.60;;;0.57;;
6374;SDS011;35400;45.472;-122.822;2023-05-07T00:05:12;0.90;;;0.90;;
6374;SDS011;35400;45.472;-122.822;2023-05-07T00:07:40;2.00;;;0.98;;
6374;SDS011;35400;45.472;-122.822;2023-05-07T00:10:07;0.85;;;0.82;;
6374;SDS011;35400;45.472;-122.822;2023-05-07T00:12:34;0.50;;;0.50;;
6374;SDS011;35400;45.472;-122.822;2023-05-07T00:15:02;1.50;;;0.70;;
6374;SDS011;35400;45.472;-122.822;2023-05-07T00:17:29;0.50;;;0.50;;
6374;SDS011;35400;45.472;-122.822;2023-05-07T00:19:56;0.93;;;0.60;;
6374;SDS011;35400;45.472;-122.822;2023-05-07T00:22:23;0.60;;;0.60;;
6374;SDS011;35400;45.472;-122.822;2023-05-07T00:24:50;0.70;;;0.70;;
6374;SDS011;35400;45.472;-122.822;2023-05-07T00:27:17;0.77;;;0.73;;
6374;SDS011;35400;45.472;-122.822;2023-05-07T00:29:43;0.90;;;0.60;;
6374;SDS011;35400;45.472;-122.822;2023-05-07T00:32:10;0.70;;;0.70;;
6374;SDS011;35400;45.472;-122.822;2023-05-07T00:34:37;1.20;;;0.70;;
6374;SDS011;35400;45.472;-122.822;2023-05-07T00:37:06;0.70;;;0.70;;
6374;SDS011;35400;45.472;-122.822;2023-05-07T00:39:39;1.07;;;0.60;;
6374;SDS011;35400;45.472;-122.822;2023-05-07T00:42:05;0.60;;;0.60;;
6374;SDS011;35400;45.472;-122.822;2023-05-07T00:44:33;1.03;;;0.60;;
6374;SDS011;35400;45.472;-122.822;2023-05-07T00:47:01;0.98;;;0.73;;
6374;SDS011;35400;45.472;-122.822;2023-05-07T00:49:34;1.50;;;0.50;;
6374;SDS011;35400;45.472;-122.822;2023-05-07T00:52:09;0.60;;;0.60;;
6374;SDS011;35400;45.472;-122.822;2023-05-07T00:54:40;0.60;;;0.60;;
6374;SDS011;35400;45.472;-122.822;2023-05-07T00:57:07;1.27;;;0.70;;
6374;SDS011;35400;45.472;-122.822;2023-05-07T00:59:37;0.70;;;0.60;;
6374;SDS011;35400;45.472;-122.822;2023-05-07T01:02:04;0.70;;;0.57;;
6374;SDS011;35400;45.472;-122.822;2023-05-07T01:04:31;1.63;;;0.80;;
6374;SDS011;35400;45.472;-122.822;2023-05-07T01:06:58;0.90;;;0.73;;
6374;SDS011;35400;45.472;-122.822;2023-05-07T01:09:26;0.70;;;0.70;;
6374;SDS011;35400;45.472;-122.822;2023-05-07T01:11:54;1.40;;;1.30;;
6374;SDS011;35400;45.472;-122.822;2023-05-07T01:14:23;1.20;;;1.03;;
6374;SDS011;35400;45.472;-122.822;2023-05-07T01:16:51;1.40;;;0.60;;
6374;SDS011;35400;45.472;-122.822;2023-05-07T01:19:20;1.03;;;0.60;;
6374;SDS011;35400;45.472;-122.822;2023-05-07T01:21:48;1.23;;;0.53;;
6374;SDS011;35400;45.472;-122.822;2023-05-07T01:24:18;0.80;;;0.80;;
6374;SDS011;35400;45.472;-122.822;2023-05-07T01:26:45;2.00;;;0.70;;
6374;SDS011;35400;45.472;-122.822;2023-05-07T01:29:14;1.13;;;0.77;;
6374;SDS011;35400;45.472;-122.822;2023-05-07T01:31:41;0.90;;;0.90;;
6374;SDS011;35400;45.472;-122.822;2023-05-07T01:34:09;2.43;;;1.23;;
6374;SDS011;35400;45.472;-122.822;2023-05-07T01:36:37;0.80;;;0.80;;
6374;SDS011;35400;45.472;-122.822;2023-05-07T01:39:06;1.13;;;0.60;;
6374;SDS011;35400;45.472;-122.822;2023-05-07T01:41:34;3.40;;;1.03;;
6374;SDS011;35400;45.472;-122.822;2023-05-07T01:44:01;2.50;;;0.80;;
6374;SDS011;35400;45.472;-122.822;2023-05-07T01:46:30;1.20;;;1.00;;
6374;SDS011;35400;45.472;-122.822;2023-05-07T01:48:58;1.73;;;0.70;;
6374;SDS011;35400;45.472;-122.822;2023-05-07T01:51:26;1.00;;;0.60;;
6374;SDS011;35400;45.472;-122.822;2023-05-07T01:53:53;1.70;;;0.80;;
6374;SDS011;35400;45.472;-122.822;2023-05-07T01:56:20;1.07;;;0.70;;
6374;SDS011;35400;45.472;-122.822;2023-05-07T01:58:50;1.80;;;0.80;;
6374;SDS011;35400;45.472;-122.822;2023-05-07T02:01:17;1.40;;;0.97;;
6374;SDS011;35400;45.472;-122.822;2023-05-07T02:03:44;1.23;;;0.70;;
6374;SDS011;35400;45.472;-122.822;2023-05-07T02:06:19;1.47;;;0.70;;
6374;SDS011;35400;45.472;-122.822;2023-05-07T02:08:47;0.60;;;0.60;;
6374;SDS011;35400;45.472;-122.822;2023-05-07T02:11:14;0.67;;;0.53;;
6374;SDS011;35400;45.472;-122.822;2023-05-07T02:13:43;0.60;;;0.60;;
6374;SDS011;35400;45.472;-122.822;2023-05-07T02:16:11;0.90;;;0.70;;
6374;SDS011;35400;45.472;-122.822;2023-05-07T02:18:40;1.47;;;0.80;;
6374;SDS011;35400;45.472;-122.822;2023-05-07T02:21:08;1.90;;;0.80;;
6374;SDS011;35400;45.472;-122.822;2023-05-07T02:23:35;0.50;;;0.50;;
6374;SDS011;35400;45.472;-122.822;2023-05-07T02:26:05;2.03;;;1.03;;
6374;SDS011;35400;45.472;-122.822;2023-05-07T02:28:34;1.17;;;0.63;;
6374;SDS011;35400;45.472;-122.822;2023-05-07T02:31:04;2.83;;;1.00;;
6374;SDS011;35400;45.472;-122.822;2023-05-07T02:33:33;1.30;;;1.03;;
6374;SDS011;35400;45.472;-122.822;2023-05-07T02:36:08;1.60;;;0.60;;
6374;SDS011;35400;45.472;-122.822;2023-05-07T02:38:42;1.60;;;1.10;;
6374;SDS011;35400;45.472;-122.822;2023-05-07T02:41:10;1.17;;;0.70;;
6374;SDS011;35400;45.472;-122.822;2023-05-07T02:43:38;1.67;;;0.90;;
6374;SDS011;35400;45.472;-122.822;2023-05-07T02:46:06;1.87;;;1.40;;
6374;SDS011;35400;45.472;-122.822;2023-05-07T02:48:39;1.67;;;1.30;;
6374;SDS011;35400;45.472;-122.822;2023-05-07T02:51:06;1.13;;;0.90;;
6374;SDS011;35400;45.472;-122.822;2023-05-07T02:53:36;2.13;;;1.10;;
6374;SDS011;35400;45.472;-122.822;2023-05-07T02:56:05;0.90;;;0.70;;
6374;SDS011;35400;45.472;-122.822;2023-05-07T02:58:33;3.33;;;0.83;;
6374;SDS011;35400;45.472;-122.822;2023-05-07T03:01:02;1.27;;;0.60;;
6374;SDS011;35400;45.472;-122.822;2023-05-07T03:03:46;2.03;;;0.90;;
6374;SDS011;35400;45.472;-122.822;2023-05-07T03:06:16;1.60;;;0.87;;
6374;SDS011;35400;45.472;-122.822;2023-05-07T03:08:44;3.17;;;1.17;;
6374;SDS011;35400;45.472;-122.822;2023-05-07T03:11:12;1.80;;;1.10;;
6374;SDS011;35400;45.472;-122.822;2023-05-07T03:13:42;1.13;;;0.83;;
6374;SDS011;35400;45.472;-122.822;2023-05-07T03:16:11;1.13;;;0.77;;
6374;SDS011;35400;45.472;-122.822;2023-05-07T03:18:40;2.20;;;0.73;;
6374;SDS011;35400;45.472;-122.822;2023-05-07T03:21:10;2.63;;;0.73;;
6374;SDS011;35400;45.472;-122.822;2023-05-07T03:23:40;1.53;;;0.87;;
6374;SDS011;35400;45.472;-122.822;2023-05-07T03:26:07;1.47;;;1.00;;
6374;SDS011;35400;45.472;-122.822;2023-05-07T03:28:34;1.37;;;1.10;;
6374;SDS011;35400;45.472;-122.822;2023-05-07T03:31:04;1.03;;;0.93;;
6374;SDS011;35400;45.472;-122.822;2023-05-07T03:33:37;1.13;;;0.77;;
6374;SDS011;35400;45.472;-122.822;2023-05-07T03:36:16;1.43;;;1.10;;
6374;SDS011;35400;45.472;-122.822;2023-05-07T03:38:43;1.20;;;1.10;;
6374;SDS011;35400;45.472;-122.822;2023-05-07T03:41:11;1.93;;;1.00;;
6374;SDS011;35400;45.472;-122.822;2023-05-07T03:43:38;1.80;;;1.00;;
6374;SDS011;35400;45.472;-122.822;2023-05-07T03:46:08;1.10;;;1.00;;
6374;SDS011;35400;45.472;-122.822;2023-05-07T03:48:35;1.10;;;1.00;;
6374;SDS011;35400;45.472;-122.822;2023-05-07T03:51:02;1.17;;;1.07;;
6374;SDS011;35400;45.472;-122.822;2023-05-07T03:53:32;1.87;;;1.40;;
6374;SDS011;35400;45.472;-122.822;2023-05-07T03:55:59;2.40;;;1.30;;
6374;SDS011;35400;45.472;-122.822;2023-05-07T03:58:29;2.13;;;1.53;;
6374;SDS011;35400;45.472;-122.822;2023-05-07T04:00:59;1.93;;;1.10;;
6374;SDS011;35400;45.472;-122.822;2023-05-07T04:03:29;2.73;;;1.30;;
6374;SDS011;35400;45.472;-122.822;2023-05-07T04:05:58;1.43;;;1.10;;
6374;SDS011;35400;45.472;-122.822;2023-05-07T04:08:27;2.20;;;1.10;;
6374;SDS011;35400;45.472;-122.822;2023-05-07T04:10:57;3.47;;;1.83;;
6374;SDS011;35400;45.472;-122.822;2023-05-07T04:13:29;1.30;;;1.20;;
6374;SDS011;35400;45.472;-122.822;2023-05-07T04:15:57;2.70;;;1.00;;
6374;SDS011;35400;45.472;-122.822;2023-05-07T04:18:25;3.07;;;1.00;;
6374;SDS011;35400;45.472;-122.822;2023-05-07T04:20:52;3.10;;;1.30;;
6374;SDS011;35400;45.472;-122.822;2023-05-07T04:23:20;2.53;;;1.00;;
6374;SDS011;35400;45.472;-122.822;2023-05-07T04:25:47;2.67;;;1.80;;
6374;SDS011;35400;45.472;-122.822;2023-05-07T04:28:43;2.70;;;1.97;;
6374;SDS011;35400;45.472;-122.822;2023-05-07T04:31:11;2.47;;;1.60;;
6374;SDS011;35400;45.472;-122.822;2023-05-07T04:33:39;6.13;;;3.87;;
6374;SDS011;35400;45.472;-122.822;2023-05-07T04:36:10;5.80;;;4.27;;
6374;SDS011;35400;45.472;-122.822;2023-05-07T04:38:45;8.33;;;5.63;;
6374;SDS011;35400;45.472;-122.822;2023-05-07T04:41:16;9.27;;;5.47;;
6374;SDS011;35400;45.472;-122.822;2023-05-07T04:43:43;10.10;;;6.00;;
6374;SDS011;35400;45.472;-122.822;2023-05-07T04:46:12;11.90;;;6.87;;
6374;SDS011;35400;45.472;-122.822;2023-05-07T04:48:41;9.53;;;5.33;;
6374;SDS011;35400;45.472;-122.822;2023-05-07T04:51:08;6.77;;;3.60;;
6374;SDS011;35400;45.472;-122.822;2023-05-07T04:53:35;5.90;;;3.33;;
6374;SDS011;35400;45.472;-122.822;2023-05-07T04:56:03;5.13;;;3.10;;
6374;SDS011;35400;45.472;-122.822;2023-05-07T04:58:37;2.77;;;2.07;;
6374;SDS011;35400;45.472;-122.822;2023-05-07T05:01:04;2.60;;;1.37;;
6374;SDS011;35400;45.472;-122.822;2023-05-07T05:03:31;2.43;;;1.10;;
6374;SDS011;35400;45.472;-122.822;2023-05-07T05:05:58;1.57;;;1.10;;
6374;SDS011;35400;45.472;-122.822;2023-05-07T05:08:31;1.57;;;1.20;;
6374;SDS011;35400;45.472;-122.822;2023-05-07T05:11:00;1.03;;;0.87;;
6374;SDS011;35400;45.472;-122.822;2023-05-07T05:13:28;0.80;;;0.80;;
6374;SDS011;35400;45.472;-122.822;2023-05-07T05:15:56;2.03;;;1.07;;
6374;SDS011;35400;45.472;-122.822;2023-05-07T05:18:24;1.90;;;0.70;;
6374;SDS011;35400;45.472;-122.822;2023-05-07T05:20:51;0.73;;;0.60;;
6374;SDS011;35400;45.472;-122.822;2023-05-07T05:23:19;1.37;;;0.77;;
6374;SDS011;35400;45.472;-122.822;2023-05-07T05:25:45;1.00;;;0.80;;
6374;SDS011;35400;45.472;-122.822;2023-05-07T05:28:13;0.80;;;0.70;;
6374;SDS011;35400;45.472;-122.822;2023-05-07T05:30:43;1.13;;;0.60;;
6374;SDS011;35400;45.472;-122.822;2023-05-07T05:33:10;0.60;;;0.60;;
6374;SDS011;35400;45.472;-122.822;2023-05-07T05:35:37;1.77;;;0.63;;
6374;SDS011;35400;45.472;-122.822;2023-05-07T05:38:10;0.70;;;0.70;;
6374;SDS011;35400;45.472;-122.822;2023-05-07T05:40:38;0.70;;;0.70;;
6374;SDS011;35400;45.472;-122.822;2023-05-07T05:43:05;0.50;;;0.50;;
6374;SDS011;35400;45.472;-122.822;2023-05-07T05:45:32;0.60;;;0.60;;
6374;SDS011;35400;45.472;-122.822;2023-05-07T05:47:59;0.60;;;0.60;;
6374;SDS011;35400;45.472;-122.822;2023-05-07T05:50:27;0.57;;;0.50;;
6374;SDS011;35400;45.472;-122.822;2023-05-07T05:52:55;0.60;;;0.60;;
6374;SDS011;35400;45.472;-122.822;2023-05-07T05:55:22;0.40;;;0.40;;
6374;SDS011;35400;45.472;-122.822;2023-05-07T05:57:50;0.60;;;0.50;;
6374;SDS011;35400;45.472;-122.822;2023-05-07T06:00:18;0.67;;;0.53;;
6374;SDS011;35400;45.472;-122.822;2023-05-07T06:02:58;2.53;;;0.47;;
6374;SDS011;35400;45.472;-122.822;2023-05-07T06:05:26;0.40;;;0.40;;
6374;SDS011;35400;45.472;-122.822;2023-05-07T06:07:55;0.57;;;0.40;;
6374;SDS011;35400;45.472;-122.822;2023-05-07T06:10:22;0.83;;;0.40;;
6374;SDS011;35400;45.472;-122.822;2023-05-07T06:12:50;1.07;;;0.57;;
6374;SDS011;35400;45.472;-122.822;2023-05-07T06:15:17;2.63;;;0.50;;
6374;SDS011;35400;45.472;-122.822;2023-05-07T06:17:45;0.60;;;0.50;;
6374;SDS011;35400;45.472;-122.822;2023-05-07T06:20:11;0.97;;;0.60;;
6374;SDS011;35400;45.472;-122.822;2023-05-07T06:22:41;0.50;;;0.50;;
6374;SDS011;35400;45.472;-122.822;2023-05-07T06:25:10;0.50;;;0.43;;
6374;SDS011;35400;45.472;-122.822;2023-05-07T06:27:39;0.40;;;0.40;;
6374;SDS011;35400;45.472;-122.822;2023-05-07T06:30:06;0.50;;;0.40;;
6374;SDS011;35400;45.472;-122.822;2023-05-07T06:32:33;1.73;;;0.50;;
6374;SDS011;35400;45.472;-122.822;2023-05-07T06:35:01;0.43;;;0.43;;
6374;SDS011;35400;45.472;-122.822;2023-05-07T06:37:28;0.60;;;0.60;;
6374;SDS011;35400;45.472;-122.822;2023-05-07T06:40:01;0.67;;;0.60;;
6374;SDS011;35400;45.472;-122.822;2023-05-07T06:42:30;0.73;;;0.57;;
6374;SDS011;35400;45.472;-122.822;2023-05-07T06:45:11;1.63;;;0.40;;
6374;SDS011;35400;45.472;-122.822;2023-05-07T06:47:38;1.13;;;0.80;;
6374;SDS011;35400;45.472;-122.822;2023-05-07T06:50:05;2.03;;;0.50;;
6374;SDS011;35400;45.472;-122.822;2023-05-07T06:52:33;1.30;;;0.43;;
6374;SDS011;35400;45.472;-122.822;2023-05-07T06:55:01;0.63;;;0.50;;
6374;SDS011;35400;45.472;-122.822;2023-05-07T06:57:28;0.30;;;0.30;;
6374;SDS011;35400;45.472;-122.822;2023-05-07T06:59:55;2.40;;;0.40;;
6374;SDS011;35400;45.472;-122.822;2023-05-07T07:02:22;0.47;;;0.37;;
6374;SDS011;35400;45.472;-122.822;2023-05-07T07:04:49;0.57;;;0.40;;
6374;SDS011;35400;45.472;-122.822;2023-05-07T07:07:16;0.30;;;0.30;;
6374;SDS011;35400;45.472;-122.822;2023-05-07T07:09:45;0.30;;;0.30;;
6374;SDS011;35400;45.472;-122.822;2023-05-07T07:12:15;0.47;;;0.40;;
6374;SDS011;35400;45.472;-122.822;2023-05-07T07:14:42;0.83;;;0.40;;
6374;SDS011;35400;45.472;-122.822;2023-05-07T07:17:09;0.73;;;0.30;;
6374;SDS011;35400;45.472;-122.822;2023-05-07T07:19:36;1.20;;;0.47;;
6374;SDS011;35400;45.472;-122.822;2023-05-07T07:22:04;0.40;;;0.40;;
6374;SDS011;35400;45.472;-122.822;2023-05-07T07:24:32;0.40;;;0.27;;
6374;SDS011;35400;45.472;-122.822;2023-05-07T07:27:02;0.33;;;0.33;;
6374;SDS011;35400;45.472;-122.822;2023-05-07T07:29:32;1.97;;;0.30;;
6374;SDS011;35400;45.472;-122.822;2023-05-07T07:31:58;0.93;;;0.30;;
6374;SDS011;35400;45.472;-122.822;2023-05-07T07:34:28;0.60;;;0.30;;
6374;SDS011;35400;45.472;-122.822;2023-05-07T07:36:56;1.30;;;0.37;;
6374;SDS011;35400;45.472;-122.822;2023-05-07T07:39:26;1.27;;;0.67;;
6374;SDS011;35400;45.472;-122.822;2023-05-07T07:41:55;0.73;;;0.33;;
6374;SDS011;35400;45.472;-122.822;2023-05-07T07:44:22;0.33;;;0.23;;
6374;SDS011;35400;45.472;-122.822;2023-05-07T07:46:54;0.30;;;0.30;;
6374;SDS011;35400;45.472;-122.822;2023-05-07T07:49:23;0.30;;;0.20;;
6374;SDS011;35400;45.472;-122.822;2023-05-07T07:51:53;0.90;;;0.33;;
6374;SDS011;35400;45.472;-122.822;2023-05-07T07:54:26;0.40;;;0.40;;
6374;SDS011;35400;45.472;-122.822;2023-05-07T07:56:53;0.20;;;0.20;;
6374;SDS011;35400;45.472;-122.822;2023-05-07T07:59:20;0.60;;;0.30;;
6374;SDS011;35400;45.472;-122.822;2023-05-07T08:01:51;1.10;;;0.20;;
6374;SDS011;35400;45.472;-122.822;2023-05-07T08:04:22;1.03;;;0.30;;
6374;SDS011;35400;45.472;-122.822;2023-05-07T08:06:57;0.63;;;0.40;;
6374;SDS011;35400;45.472;-122.822;2023-05-07T08:09:24;0.87;;;0.40;;
6374;SDS011;35400;45.472;-122.822;2023-05-07T08:11:53;1.63;;;0.33;;
6374;SDS011;35400;45.472;-122.822;2023-05-07T08:14:22;0.30;;;0.30;;
6374;SDS011;35400;45.472;-122.822;2023-05-07T08:19:37;0.70;;;0.33;;
6374;SDS011;35400;45.472;-122.822;2023-05-07T08:22:07;0.43;;;0.40;;
6374;SDS011;35400;45.472;-122.822;2023-05-07T08:24:34;0.60;;;0.30;;
6374;SDS011;35400;45.472;-122.822;2023-05-07T08:27:04;0.30;;;0.30;;
6374;SDS011;35400;45.472;-122.822;2023-05-07T08:29:31;0.33;;;0.30;;
6374;SDS011;35400;45.472;-122.822;2023-05-07T08:31:59;0.30;;;0.30;;
6374;SDS011;35400;45.472;-122.822;2023-05-07T08:34:35;0.40;;;0.40;;
6374;SDS011;35400;45.472;-122.822;2023-05-07T08:37:04;1.00;;;0.40;;
6374;SDS011;35400;45.472;-122.822;2023-05-07T08:39:34;0.40;;;0.40;;
6374;SDS011;35400;45.472;-122.822;2023-05-07T08:42:03;0.40;;;0.40;;
6374;SDS011;35400;45.472;-122.822;2023-05-07T08:44:33;1.00;;;0.57;;
6374;SDS011;35400;45.472;-122.822;2023-05-07T08:47:13;2.80;;;0.60;;
6374;SDS011;35400;45.472;-122.822;2023-05-07T08:49:40;1.90;;;0.50;;
6374;SDS011;35400;45.472;-122.822;2023-05-07T08:52:08;1.07;;;0.60;;
6374;SDS011;35400;45.472;-122.822;2023-05-07T08:54:45;0.40;;;0.40;;
6374;SDS011;35400;45.472;-122.822;2023-05-07T08:57:13;0.37;;;0.37;;
6374;SDS011;35400;45.472;-122.822;2023-05-07T08:59:40;0.73;;;0.60;;
6374;SDS011;35400;45.472;-122.822;2023-05-07T09:02:07;1.43;;;0.77;;
6374;SDS011;35400;45.472;-122.822;2023-05-07T09:04:38;0.43;;;0.43;;
6374;SDS011;35400;45.472;-122.822;2023-05-07T09:07:05;0.90;;;0.67;;
6374;SDS011;35400;45.472;-122.822;2023-05-07T09:09:37;2.33;;;0.80;;
6374;SDS011;35400;45.472;-122.822;2023-05-07T09:12:05;0.50;;;0.50;;
6374;SDS011;35400;45.472;-122.822;2023-05-07T09:14:34;1.03;;;0.60;;
6374;SDS011;35400;45.472;-122.822;2023-05-07T09:17:03;0.60;;;0.50;;
6374;SDS011;35400;45.472;-122.822;2023-05-07T09:19:38;1.17;;;0.53;;
6374;SDS011;35400;45.472;-122.822;2023-05-07T09:22:06;0.80;;;0.67;;
6374;SDS011;35400;45.472;-122.822;2023-05-07T09:24:49;2.17;;;0.80;;
6374;SDS011;35400;45.472;-122.822;2023-05-07T09:27:19;0.90;;;0.80;;
6374;SDS011;35400;45.472;-122.822;2023-05-07T09:29:46;3.17;;;0.70;;
6374;SDS011;35400;45.472;-122.822;2023-05-07T09:32:16;1.33;;;0.90;;
6374;SDS011;35400;45.472;-122.822;2023-05-07T09:34:43;1.93;;;0.57;;
6374;SDS011;35400;45.472;-122.822;2023-05-07T09:37:14;1.17;;;0.77;;
6374;SDS011;35400;45.472;-122.822;2023-05-07T09:42:48;1.00;;;0.80;;
6374;SDS011;35400;45.472;-122.822;2023-05-07T09:45:16;2.53;;;0.80;;
6374;SDS011;35400;45.472;-122.822;2023-05-07T09:48:05;2.60;;;0.90;;
6374;SDS011;35400;45.472;-122.822;2023-05-07T09:50:42;0.87;;;0.80;;
6374;SDS011;35400;45.472;-122.822;2023-05-07T09:53:17;1.10;;;0.77;;
6374;SDS011;35400;45.472;-122.822;2023-05-07T09:55:45;2.37;;;0.90;;
6374;SDS011;35400;45.472;-122.822;2023-05-07T09:58:14;1.33;;;0.80;;
6374;SDS011;35400;45.472;-122.822;2023-05-07T10:00:49;2.10;;;0.90;;
6374;SDS011;35400;45.472;-122.822;2023-05-07T10:03:17;1.67;;;0.80;;
6374;SDS011;35400;45.472;-122.822;2023-05-07T10:05:54;2.40;;;0.70;;
6374;SDS011;35400;45.472;-122.822;2023-05-07T10:08:24;1.67;;;1.00;;
6374;SDS011;35400;45.472;-122.822;2023-05-07T10:10:57;1.67;;;0.80;;
6374;SDS011;35400;45.472;-122.822;2023-05-07T10:13:27;1.63;;;0.70;;
6374;SDS011;35400;45.472;-122.822;2023-05-07T10:15:57;1.50;;;0.67;;
6374;SDS011;35400;45.472;-122.822;2023-05-07T10:18:32;1.43;;;0.90;;
6374;SDS011;35400;45.472;-122.822;2023-05-07T10:21:17;2.13;;;0.90;;
6374;SDS011;35400;45.472;-122.822;2023-05-07T10:23:55;3.20;;;0.90;;
6374;SDS011;35400;45.472;-122.822;2023-05-07T10:26:28;1.00;;;0.93;;
6374;SDS011;35400;45.472;-122.822;2023-05-07T10:29:02;2.03;;;0.73;;
6374;SDS011;35400;45.472;-122.822;2023-05-07T10:34:13;2.53;;;0.93;;
6374;SDS011;35400;45.472;-122.822;2023-05-07T10:36:48;0.97;;;0.70;;
6374;SDS011;35400;45.472;-122.822;2023-05-07T10:39:19;3.80;;;1.13;;
6374;SDS011;35400;45.472;-122.822;2023-05-07T10:41:47;0.80;;;0.70;;
6374;SDS011;35400;45.472;-122.822;2023-05-07T10:44:25;1.30;;;1.20;;
6374;SDS011;35400;45.472;-122.822;2023-05-07T10:47:10;1.70;;;0.93;;
6374;SDS011;35400;45.472;-122.822;2023-05-07T10:52:21;1.27;;;1.10;;
6374;SDS011;35400;45.472;-122.822;2023-05-07T10:57:55;2.37;;;1.33;;
6374;SDS011;35400;45.472;-122.822;2023-05-07T11:05:41;1.97;;;1.20;;
6374;SDS011;35400;45.472;-122.822;2023-05-07T11:08:19;2.33;;;1.27;;
6374;SDS011;35400;45.472;-122.822;2023-05-07T11:10:57;2.77;;;1.10;;
6374;SDS011;35400;45.472;-122.822;2023-05-07T11:13:46;1.27;;;0.87;;
6374;SDS011;35400;45.472;-122.822;2023-05-07T11:16:37;1.70;;;1.07;;
6374;SDS011;35400;45.472;-122.822;2023-05-07T11:19:47;2.17;;;1.20;;
6374;SDS011;35400;45.472;-122.822;2023-05-07T11:25:07;3.93;;;1.20;;
6374;SDS011;35400;45.472;-122.822;2023-05-07T11:27:35;2.07;;;1.37;;
6374;SDS011;35400;45.472;-122.822;2023-05-07T11:30:02;2.77;;;1.20;;
6374;SDS011;35400;45.472;-122.822;2023-05-07T11:35:08;1.90;;;1.07;;
6374;SDS011;35400;45.472;-122.822;2023-05-07T11:37:35;1.67;;;0.97;;
6374;SDS011;35400;45.472;-122.822;2023-05-07T11:40:07;1.63;;;1.10;;
6374;SDS011;35400;45.472;-122.822;2023-05-07T11:42:40;1.53;;;0.87;;
6374;SDS011;35400;45.472;-122.822;2023-05-07T11:45:22;1.23;;;1.07;;
6374;SDS011;35400;45.472;-122.822;2023-05-07T11:47:52;5.50;;;1.30;;
6374;SDS011;35400;45.472;-122.822;2023-05-07T11:50:19;1.20;;;1.10;;
6374;SDS011;35400;45.472;-122.822;2023-05-07T11:52:50;2.10;;;1.13;;
6374;SDS011;35400;45.472;-122.822;2023-05-07T11:55:23;3.33;;;1.23;;
6374;SDS011;35400;45.472;-122.822;2023-05-07T11:57:51;3.63;;;1.27;;
6374;SDS011;35400;45.472;-122.822;2023-05-07T12:00:21;2.67;;;1.27;;
6374;SDS011;35400;45.472;-122.822;2023-05-07T12:02:48;2.27;;;1.30;;
6374;SDS011;35400;45.472;-122.822;2023-05-07T12:05:14;3.53;;;1.17;;
6374;SDS011;35400;45.472;-122.822;2023-05-07T12:07:46;2.90;;;1.30;;
6374;SDS011;35400;45.472;-122.822;2023-05-07T12:10:13;2.87;;;1.13;;
6374;SDS011;35400;45.472;-122.822;2023-05-07T12:12:45;1.93;;;1.23;;
6374;SDS011;35400;45.472;-122.822;2023-05-07T12:15:16;1.77;;;1.30;;
6374;SDS011;35400;45.472;-122.822;2023-05-07T12:17:52;3.30;;;1.13;;
6374;SDS011;35400;45.472;-122.822;2023-05-07T12:20:25;2.90;;;1.43;;
6374;SDS011;35400;45.472;-122.822;2023-05-07T12:23:03;2.60;;;1.10;;
6374;SDS011;35400;45.472;-122.822;2023-05-07T12:25:37;2.73;;;1.23;;
6374;SDS011;35400;45.472;-122.822;2023-05-07T12:28:05;4.03;;;1.27;;
6374;SDS011;35400;45.472;-122.822;2023-05-07T12:30:38;4.03;;;1.40;;
6374;SDS011;35400;45.472;-122.822;2023-05-07T12:33:15;2.10;;;1.40;;
6374;SDS011;35400;45.472;-122.822;2023-05-07T12:35:43;3.03;;;1.60;;
6374;SDS011;35400;45.472;-122.822;2023-05-07T12:38:13;3.53;;;1.30;;
6374;SDS011;35400;45.472;-122.822;2023-05-07T12:40:43;2.43;;;1.30;;
6374;SDS011;35400;45.472;-122.822;2023-05-07T12:43:25;3.70;;;1.60;;
6374;SDS011;35400;45.472;-122.822;2023-05-07T12:45:54;3.37;;;1.53;;
6374;SDS011;35400;45.472;-122.822;2023-05-07T12:48:23;3.47;;;1.67;;
6374;SDS011;35400;45.472;-122.822;2023-05-07T12:50:53;5.30;;;1.50;;
6374;SDS011;35400;45.472;-122.822;2023-05-07T12:53:21;3.67;;;1.47;;
6374;SDS011;35400;45.472;-122.822;2023-05-07T12:55:57;3.07;;;1.40;;
6374;SDS011;35400;45.472;-122.822;2023-05-07T12:58:29;3.37;;;1.50;;
6374;SDS011;35400;45.472;-122.822;2023-05-07T13:01:01;2.77;;;1.63;;
6374;SDS011;35400;45.472;-122.822;2023-05-07T13:03:36;4.63;;;1.90;;
6374;SDS011;35400;45.472;-122.822;2023-05-07T13:06:08;4.67;;;1.47;;
6374;SDS011;35400;45.472;-122.822;2023-05-07T13:08:38;3.67;;;1.30;;
6374;SDS011;35400;45.472;-122.822;2023-05-07T13:11:09;1.83;;;1.23;;
6374;SDS011;35400;45.472;-122.822;2023-05-07T13:13:36;3.20;;;1.40;;
6374;SDS011;35400;45.472;-122.822;2023-05-07T13:16:08;2.03;;;1.20;;
6374;SDS011;35400;45.472;-122.822;2023-05-07T13:18:37;3.03;;;1.40;;
6374;SDS011;35400;45.472;-122.822;2023-05-07T13:21:09;2.07;;;1.20;;
6374;SDS011;35400;45.472;-122.822;2023-05-07T13:23:45;3.30;;;1.60;;
6374;SDS011;35400;45.472;-122.822;2023-05-07T13:26:12;4.57;;;1.30;;
6374;SDS011;35400;45.472;-122.822;2023-05-07T13:28:39;2.37;;;1.23;;
6374;SDS011;35400;45.472;-122.822;2023-05-07T13:31:06;2.67;;;1.70;;
6374;SDS011;35400;45.472;-122.822;2023-05-07T13:33:33;3.57;;;1.30;;
6374;SDS011;35400;45.472;-122.822;2023-05-07T13:36:02;1.97;;;1.20;;
6374;SDS011;35400;45.472;-122.822;2023-05-07T13:38:39;3.87;;;1.60;;
6374;SDS011;35400;45.472;-122.822;2023-05-07T13:41:06;3.33;;;1.30;;
6374;SDS011;35400;45.472;-122.822;2023-05-07T13:43:32;2.93;;;1.47;;
6374;SDS011;35400;45.472;-122.822;2023-05-07T13:46:02;3.60;;;1.70;;
6374;SDS011;35400;45.472;-122.822;2023-05-07T13:48:35;4.60;;;1.43;;
6374;SDS011;35400;45.472;-122.822;2023-05-07T13:51:02;3.27;;;1.40;;
6374;SDS011;35400;45.472;-122.822;2023-05-07T13:53:34;3.30;;;1.73;;
6374;SDS011;35400;45.472;-122.822;2023-05-07T13:56:01;3.10;;;1.63;;
6374;SDS011;35400;45.472;-122.822;2023-05-07T13:58:30;3.70;;;1.40;;
6374;SDS011;35400;45.472;-122.822;2023-05-07T14:00:57;4.90;;;1.70;;
6374;SDS011;35400;45.472;-122.822;2023-05-07T14:03:23;3.60;;;1.83;;
6374;SDS011;35400;45.472;-122.822;2023-05-07T14:05:53;3.10;;;1.60;;
6374;SDS011;35400;45.472;-122.822;2023-05-07T14:08:19;3.30;;;1.60;;
6374;SDS011;35400;45.472;-122.822;2023-05-07T14:10:46;1.77;;;1.50;;
6374;SDS011;35400;45.472;-122.822;2023-05-07T14:13:13;2.50;;;1.80;;
6374;SDS011;35400;45.472;-122.822;2023-05-07T14:15:40;2.60;;;1.87;;
6374;SDS011;35400;45.472;-122.822;2023-05-07T14:18:15;2.70;;;2.10;;
6374;SDS011;35400;45.472;-122.822;2023-05-07T14:20:41;3.13;;;1.77;;
6374;SDS011;35400;45.472;-122.822;2023-05-07T14:23:13;4.73;;;1.80;;
6374;SDS011;35400;45.472;-122.822;2023-05-07T14:25:40;5.43;;;2.33;;
6374;SDS011;35400;45.472;-122.822;2023-05-07T14:28:09;3.30;;;1.90;;
6374;SDS011;35400;45.472;-122.822;2023-05-07T14:30:35;2.60;;;1.83;;
6374;SDS011;35400;45.472;-122.822;2023-05-07T14:33:05;2.13;;;1.60;;
6374;SDS011;35400;45.472;-122.822;2023-05-07T14:35:32;4.47;;;1.70;;
6374;SDS011;35400;45.472;-122.822;2023-05-07T14:37:59;3.93;;;2.20;;
6374;SDS011;35400;45.472;-122.822;2023-05-07T14:40:26;4.10;;;1.80;;
6374;SDS011;35400;45.472;-122.822;2023-05-07T14:42:58;2.93;;;1.50;;
6374;SDS011;35400;45.472;-122.822;2023-05-07T14:45:25;1.87;;;1.77;;
6374;SDS011;35400;45.472;-122.822;2023-05-07T14:47:55;1.90;;;1.80;;
6374;SDS011;35400;45.472;-122.822;2023-05-07T14:50:28;2.43;;;1.63;;
6374;SDS011;35400;45.472;-122.822;2023-05-07T14:52:55;4.73;;;2.13;;
6374;SDS011;35400;45.472;-122.822;2023-05-07T14:55:22;4.27;;;1.70;;
6374;SDS011;35400;45.472;-122.822;2023-05-07T14:57:51;4.53;;;1.73;;
6374;SDS011;35400;45.472;-122.822;2023-05-07T15:00:18;1.80;;;1.50;;